sensor_id;sensor_type;location;lat;lon;timestamp;pressure;altitude;pressure_sealevel;temperature;humidity
20013;BME280;10167;42.852;23.042;2022-08-25T00:05:22;94762.94;;;18.19;100.00
20013;BME280;10167;42.852;23.042;2022-08-25T00:07:53;94767.19;;;18.43;100.00
20013;BME280;10167;42.852;23.042;2022-08-25T00:10:21;94773.84;;;18.27;100.00
20013;BME280;10167;42.852;23.042;2022-08-25T00:12:48;94774.69;;;18.23;100.00
20013;BME280;10167;42.852;23.042;2022-08-25T00:15:16;94772.25;;;18.26;100.00
20013;BME280;10167;42.852;23.042;2022-08-25T00:17:43;94785.41;;;18.23;100.00
20013;BME280;10167;42.852;23.042;2022-08-25T00:20:11;94785.94;;;18.25;100.00
20013;BME280;10167;42.852;23.042;2022-08-25T00:27:42;94778.22;;;18.18;100.00
20013;BME280;10167;42.852;23.042;2022-08-25T00:30:12;94780.97;;;18.13;100.00
20013;BME280;10167;42.852;23.042;2022-08-25T00:32:42;94792.72;;;18.17;100.00
20013;BME280;10167;42.852;23.042;2022-08-25T00:35:21;94782.69;;;18.28;100.00
20013;BME280;10167;42.852;23.042;2022-08-25T00:37:50;94773.09;;;18.22;100.00
20013;BME280;10167;42.852;23.042;2022-08-25T00:40:17;94764.63;;;18.14;100.00
20013;BME280;10167;42.852;23.042;2022-08-25T00:42:46;94760.19;;;18.05;100.00
20013;BME280;10167;42.852;23.042;2022-08-25T00:49:39;94780.88;;;17.99;100.00
20013;BME280;10167;42.852;23.042;2022-08-25T00:52:12;94776.13;;;17.91;100.00
20013;BME280;10167;42.852;23.042;2022-08-25T00:54:43;94775.25;;;17.96;100.00
20013;BME280;10167;42.852;23.042;2022-08-25T00:57:14;94773.91;;;17.98;100.00
20013;BME280;10167;42.852;23.042;2022-08-25T00:59:43;94764.44;;;18.06;100.00
20013;BME280;10167;42.852;23.042;2022-08-25T01:02:12;94763.75;;;17.95;100.00
20013;BME280;10167;42.852;23.042;2022-08-25T01:04:41;94762.50;;;17.88;100.00
20013;BME280;10167;42.852;23.042;2022-08-25T01:12:19;94775.72;;;17.79;100.00
20013;BME280;10167;42.852;23.042;2022-08-25T01:14:48;94768.53;;;17.74;100.00
20013;BME280;10167;42.852;23.042;2022-08-25T01:17:16;94769.06;;;17.76;100.00
20013;BME280;10167;42.852;23.042;2022-08-25T01:19:44;94754.34;;;17.74;100.00
20013;BME280;10167;42.852;23.042;2022-08-25T01:22:12;94751.16;;;17.72;100.00
20013;BME280;10167;42.852;23.042;2022-08-25T01:24:42;94743.81;;;17.54;100.00
20013;BME280;10167;42.852;23.042;2022-08-25T01:27:13;94743.38;;;17.47;100.00
20013;BME280;10167;42.852;23.042;2022-08-25T01:34:41;94738.56;;;17.43;100.00
20013;BME280;10167;42.852;23.042;2022-08-25T01:37:11;94733.22;;;17.43;100.00
20013;BME280;10167;42.852;23.042;2022-08-25T01:39:40;94741.00;;;17.40;100.00
20013;BME280;10167;42.852;23.042;2022-08-25T01:42:22;94742.91;;;17.39;100.00
20013;BME280;10167;42.852;23.042;2022-08-25T01:44:50;94739.41;;;17.39;100.00
20013;BME280;10167;42.852;23.042;2022-08-25T01:47:18;94742.41;;;17.37;100.00
20013;BME280;10167;42.852;23.042;2022-08-25T01:49:46;94745.78;;;17.48;100.00
20013;BME280;10167;42.852;23.042;2022-08-25T01:57:17;94741.16;;;17.54;100.00
20013;BME280;10167;42.852;23.042;2022-08-25T01:59:45;94735.09;;;17.43;100.00
20013;BME280;10167;42.852;23.042;2022-08-25T02:02:13;94733.31;;;17.33;100.00
20013;BME280;10167;42.852;23.042;2022-08-25T02:04:42;94733.59;;;17.32;100.00
20013;BME280;10167;42.852;23.042;2022-08-25T02:07:11;94733.59;;;17.32;100.00
20013;BME280;10167;42.852;23.042;2022-08-25T02:09:38;94726.41;;;17.27;100.00
20013;BME280;10167;42.852;23.042;2022-08-25T02:12:07;94733.63;;;17.27;100.00
20013;BME280;10167;42.852;23.042;2022-08-25T02:17:38;94736.06;;;17.52;100.00
20013;BME280;10167;42.852;23.042;2022-08-25T02:20:07;94729.19;;;17.46;100.00
20013;BME280;10167;42.852;23.042;2022-08-25T02:22:35;94741.94;;;17.54;100.00
20013;BME280;10167;42.852;23.042;2022-08-25T02:25:03;94742.84;;;17.73;100.00
20013;BME280;10167;42.852;23.042;2022-08-25T02:27:32;94740.28;;;17.87;100.00
20013;BME280;10167;42.852;23.042;2022-08-25T02:29:59;94745.00;;;17.95;100.00
20013;BME280;10167;42.852;23.042;2022-08-25T02:32:26;94736.53;;;17.88;100.00
20013;BME280;10167;42.852;23.042;2022-08-25T02:39:57;94740.28;;;17.63;100.00
20013;BME280;10167;42.852;23.042;2022-08-25T02:42:25;94748.47;;;17.72;100.00
20013;BME280;10167;42.852;23.042;2022-08-25T02:44:53;94747.00;;;17.85;100.00
20013;BME280;10167;42.852;23.042;2022-08-25T02:47:20;94744.97;;;17.76;100.00
20013;BME280;10167;42.852;23.042;2022-08-25T02:49:53;94738.81;;;17.76;100.00
20013;BME280;10167;42.852;23.042;2022-08-25T02:52:22;94742.16;;;17.63;100.00
20013;BME280;10167;42.852;23.042;2022-08-25T02:54:50;94748.63;;;17.57;100.00
20013;BME280;10167;42.852;23.042;2022-08-25T03:02:22;94750.97;;;17.63;100.00
20013;BME280;10167;42.852;23.042;2022-08-25T03:04:50;94744.56;;;17.64;100.00
20013;BME280;10167;42.852;23.042;2022-08-25T03:07:21;94745.06;;;17.61;100.00
20013;BME280;10167;42.852;23.042;2022-08-25T03:09:51;94737.34;;;17.60;100.00
20013;BME280;10167;42.852;23.042;2022-08-25T03:12:18;94730.97;;;17.56;100.00
20013;BME280;10167;42.852;23.042;2022-08-25T03:14:46;94726.13;;;17.58;100.00
20013;BME280;10167;42.852;23.042;2022-08-25T03:17:13;94726.44;;;17.51;100.00
20013;BME280;10167;42.852;23.042;2022-08-25T03:24:45;94728.16;;;17.42;100.00
20013;BME280;10167;42.852;23.042;2022-08-25T03:27:12;94732.44;;;17.43;100.00
20013;BME280;10167;42.852;23.042;2022-08-25T03:29:40;94735.09;;;17.43;100.00
20013;BME280;10167;42.852;23.042;2022-08-25T03:32:09;94735.66;;;17.40;100.00
20013;BME280;10167;42.852;23.042;2022-08-25T03:34:36;94742.91;;;17.39;100.00
20013;BME280;10167;42.852;23.042;2022-08-25T03:37:04;94732.97;;;17.40;100.00
20013;BME280;10167;42.852;23.042;2022-08-25T03:39:34;94734.88;;;17.39;100.00
20013;BME280;10167;42.852;23.042;2022-08-25T03:46:44;94731.31;;;17.49;100.00
20013;BME280;10167;42.852;23.042;2022-08-25T03:49:14;94735.06;;;17.48;100.00
20013;BME280;10167;42.852;23.042;2022-08-25T03:51:43;94730.56;;;17.43;100.00
20013;BME280;10167;42.852;23.042;2022-08-25T03:54:13;94731.06;;;17.46;100.00
20013;BME280;10167;42.852;23.042;2022-08-25T03:56:41;94736.47;;;17.40;100.00
20013;BME280;10167;42.852;23.042;2022-08-25T03:59:09;94741.50;;;17.47;100.00
20013;BME280;10167;42.852;23.042;2022-08-25T04:01:36;94744.63;;;17.54;100.00
20013;BME280;10167;42.852;23.042;2022-08-25T04:09:09;94744.19;;;17.47;100.00
20013;BME280;10167;42.852;23.042;2022-08-25T04:11:37;94745.97;;;17.52;100.00
20013;BME280;10167;42.852;23.042;2022-08-25T04:14:05;94744.63;;;17.54;100.00
20013;BME280;10167;42.852;23.042;2022-08-25T04:16:33;94749.44;;;17.57;100.00
20013;BME280;10167;42.852;23.042;2022-08-25T04:19:03;94739.72;;;17.66;100.00
20013;BME280;10167;42.852;23.042;2022-08-25T04:21:32;94746.84;;;17.76;100.00
20013;BME280;10167;42.852;23.042;2022-08-25T04:23:59;94747.31;;;17.83;100.00
20013;BME280;10167;42.852;23.042;2022-08-25T04:29:22;94733.97;;;17.78;100.00
20013;BME280;10167;42.852;23.042;2022-08-25T04:31:50;94734.75;;;17.78;100.00
20013;BME280;10167;42.852;23.042;2022-08-25T04:34:20;94739.09;;;17.74;100.00
20013;BME280;10167;42.852;23.042;2022-08-25T04:36:56;94737.72;;;17.77;100.00
20013;BME280;10167;42.852;23.042;2022-08-25T04:39:24;94741.66;;;17.85;100.00
20013;BME280;10167;42.852;23.042;2022-08-25T04:41:51;94731.16;;;17.88;100.00
20013;BME280;10167;42.852;23.042;2022-08-25T04:44:19;94728.75;;;17.87;100.00
20013;BME280;10167;42.852;23.042;2022-08-25T04:51:45;94726.25;;;18.38;100.00
20013;BME280;10167;42.852;23.042;2022-08-25T04:54:15;94717.06;;;18.63;100.00
20013;BME280;10167;42.852;23.042;2022-08-25T04:56:43;94725.38;;;18.80;100.00
20013;BME280;10167;42.852;23.042;2022-08-25T04:59:12;94728.31;;;19.16;100.00
20013;BME280;10167;42.852;23.042;2022-08-25T05:01:41;94743.66;;;19.29;100.00
20013;BME280;10167;42.852;23.042;2022-08-25T05:04:11;94736.69;;;19.42;100.00
20013;BME280;10167;42.852;23.042;2022-08-25T05:06:54;94741.03;;;19.56;100.00
20013;BME280;10167;42.852;23.042;2022-08-25T05:14:26;94750.47;;;19.54;100.00
20013;BME280;10167;42.852;23.042;2022-08-25T05:16:56;94759.44;;;19.31;100.00
20013;BME280;10167;42.852;23.042;2022-08-25T05:19:24;94754.53;;;19.19;100.00
20013;BME280;10167;42.852;23.042;2022-08-25T05:21:52;94746.38;;;19.10;100.00
20013;BME280;10167;42.852;23.042;2022-08-25T05:24:20;94754.34;;;19.15;100.00
20013;BME280;10167;42.852;23.042;2022-08-25T05:26:48;94750.56;;;19.16;100.00
20013;BME280;10167;42.852;23.042;2022-08-25T05:29:15;94742.03;;;19.14;100.00
20013;BME280;10167;42.852;23.042;2022-08-25T05:36:48;94746.38;;;19.10;100.00
20013;BME280;10167;42.852;23.042;2022-08-25T05:39:16;94734.53;;;19.11;100.00
20013;BME280;10167;42.852;23.042;2022-08-25T05:41:44;94741.59;;;19.07;100.00
20013;BME280;10167;42.852;23.042;2022-08-25T05:44:11;94745.56;;;19.10;100.00
20013;BME280;10167;42.852;23.042;2022-08-25T05:46:42;94733.69;;;18.97;100.00
20013;BME280;10167;42.852;23.042;2022-08-25T05:49:10;94736.59;;;19.01;100.00
20013;BME280;10167;42.852;23.042;2022-08-25T05:51:38;94729.91;;;18.98;100.00
20013;BME280;10167;42.852;23.042;2022-08-25T05:56:43;94728.97;;;19.40;100.00
20013;BME280;10167;42.852;23.042;2022-08-25T05:59:11;94720.66;;;19.55;100.00
20013;BME280;10167;42.852;23.042;2022-08-25T06:01:39;94722.75;;;19.72;100.00
20013;BME280;10167;42.852;23.042;2022-08-25T06:04:24;94725.16;;;19.74;100.00
20013;BME280;10167;42.852;23.042;2022-08-25T06:06:52;94724.66;;;19.85;100.00
20013;BME280;10167;42.852;23.042;2022-08-25T06:09:20;94725.63;;;19.89;100.00
20013;BME280;10167;42.852;23.042;2022-08-25T06:11:49;94734.13;;;19.97;100.00
20013;BME280;10167;42.852;23.042;2022-08-25T06:19:26;94734.00;;;20.43;100.00
20013;BME280;10167;42.852;23.042;2022-08-25T06:21:53;94736.25;;;20.63;100.00
20013;BME280;10167;42.852;23.042;2022-08-25T06:24:22;94737.22;;;20.89;100.00
20013;BME280;10167;42.852;23.042;2022-08-25T06:26:49;94738.53;;;21.14;100.00
20013;BME280;10167;42.852;23.042;2022-08-25T06:29:17;94741.06;;;21.33;100.00
20013;BME280;10167;42.852;23.042;2022-08-25T06:31:45;94745.72;;;21.41;100.00
20013;BME280;10167;42.852;23.042;2022-08-25T06:34:13;94746.28;;;21.60;100.00
20013;BME280;10167;42.852;23.042;2022-08-25T06:41:43;94751.75;;;22.08;100.00
20013;BME280;10167;42.852;23.042;2022-08-25T06:44:11;94753.25;;;22.32;100.00
20013;BME280;10167;42.852;23.042;2022-08-25T06:46:39;94748.69;;;22.58;100.00
20013;BME280;10167;42.852;23.042;2022-08-25T06:49:06;94757.81;;;22.79;100.00
20013;BME280;10167;42.852;23.042;2022-08-25T06:51:34;94745.22;;;22.75;100.00
20013;BME280;10167;42.852;23.042;2022-08-25T06:54:03;94758.44;;;22.76;100.00
20013;BME280;10167;42.852;23.042;2022-08-25T06:56:31;94757.94;;;22.74;100.00
20013;BME280;10167;42.852;23.042;2022-08-25T07:04:04;94753.34;;;22.66;100.00
20013;BME280;10167;42.852;23.042;2022-08-25T07:06:39;94749.56;;;22.76;100.00
20013;BME280;10167;42.852;23.042;2022-08-25T07:09:08;94747.34;;;22.78;100.00
20013;BME280;10167;42.852;23.042;2022-08-25T07:11:36;94748.59;;;22.98;100.00
20013;BME280;10167;42.852;23.042;2022-08-25T07:14:05;94752.88;;;23.16;100.00
20013;BME280;10167;42.852;23.042;2022-08-25T07:16:34;94745.56;;;23.51;100.00
20013;BME280;10167;42.852;23.042;2022-08-25T07:19:04;94751.28;;;23.58;100.00
20013;BME280;10167;42.852;23.042;2022-08-25T07:26:39;94755.19;;;24.24;100.00
20013;BME280;10167;42.852;23.042;2022-08-25T07:29:11;94755.50;;;24.52;100.00
20013;BME280;10167;42.852;23.042;2022-08-25T07:31:38;94762.34;;;24.79;100.00
20013;BME280;10167;42.852;23.042;2022-08-25T07:34:07;94767.66;;;24.96;100.00
20013;BME280;10167;42.852;23.042;2022-08-25T07:36:55;94760.59;;;25.25;100.00
20013;BME280;10167;42.852;23.042;2022-08-25T07:39:25;94759.47;;;25.26;100.00
20013;BME280;10167;42.852;23.042;2022-08-25T07:41:56;94757.84;;;25.46;100.00
20013;BME280;10167;42.852;23.042;2022-08-25T07:49:27;94768.25;;;25.77;100.00
20013;BME280;10167;42.852;23.042;2022-08-25T07:52:05;94762.72;;;25.85;100.00
20013;BME280;10167;42.852;23.042;2022-08-25T07:54:35;94769.31;;;26.21;100.00
20013;BME280;10167;42.852;23.042;2022-08-25T07:57:06;94767.56;;;26.49;100.00
20013;BME280;10167;42.852;23.042;2022-08-25T07:59:34;94769.34;;;26.69;100.00
20013;BME280;10167;42.852;23.042;2022-08-25T08:02:07;94756.44;;;26.79;100.00
20013;BME280;10167;42.852;23.042;2022-08-25T08:04:46;94754.63;;;26.83;100.00
20013;BME280;10167;42.852;23.042;2022-08-25T08:12:13;94750.09;;;27.27;100.00
20013;BME280;10167;42.852;23.042;2022-08-25T08:14:41;94756.44;;;27.31;100.00
20013;BME280;10167;42.852;23.042;2022-08-25T08:17:12;94750.84;;;27.39;100.00
20013;BME280;10167;42.852;23.042;2022-08-25T08:19:40;94744.84;;;27.34;100.00
20013;BME280;10167;42.852;23.042;2022-08-25T08:22:12;94738.28;;;27.35;100.00
20013;BME280;10167;42.852;23.042;2022-08-25T08:24:41;94728.75;;;27.41;100.00
20013;BME280;10167;42.852;23.042;2022-08-25T08:27:22;94731.72;;;27.64;100.00
20013;BME280;10167;42.852;23.042;2022-08-25T08:34:53;94730.47;;;28.21;100.00
20013;BME280;10167;42.852;23.042;2022-08-25T08:37:21;94723.97;;;28.41;100.00
20013;BME280;10167;42.852;23.042;2022-08-25T08:39:49;94723.31;;;28.47;100.00
20013;BME280;10167;42.852;23.042;2022-08-25T08:42:32;94721.69;;;28.43;98.01
20013;BME280;10167;42.852;23.042;2022-08-25T08:45:22;94712.78;;;28.46;99.87
20013;BME280;10167;42.852;23.042;2022-08-25T08:48:16;94712.28;;;28.09;100.00
20013;BME280;10167;42.852;23.042;2022-08-25T08:50:51;94713.31;;;28.04;99.78
20013;BME280;10167;42.852;23.042;2022-08-25T08:58:25;94702.03;;;28.18;99.55
20013;BME280;10167;42.852;23.042;2022-08-25T09:00:56;94708.13;;;28.46;100.00
20013;BME280;10167;42.852;23.042;2022-08-25T09:03:32;94698.19;;;28.54;96.54
20013;BME280;10167;42.852;23.042;2022-08-25T09:06:05;94701.94;;;28.65;94.89
20013;BME280;10167;42.852;23.042;2022-08-25T09:08:37;94700.19;;;28.92;96.44
20013;BME280;10167;42.852;23.042;2022-08-25T09:11:19;94699.84;;;29.13;93.73
20013;BME280;10167;42.852;23.042;2022-08-25T09:18:01;94697.03;;;29.48;91.21
20013;BME280;10167;42.852;23.042;2022-08-25T09:20:53;94694.13;;;29.37;90.57
20013;BME280;10167;42.852;23.042;2022-08-25T09:23:40;94699.34;;;28.88;89.98
20013;BME280;10167;42.852;23.042;2022-08-25T09:26:23;94696.41;;;28.62;89.73
20013;BME280;10167;42.852;23.042;2022-08-25T09:29:00;94692.38;;;28.56;92.25
20013;BME280;10167;42.852;23.042;2022-08-25T09:31:33;94673.31;;;28.21;90.65
20013;BME280;10167;42.852;23.042;2022-08-25T09:34:05;94675.91;;;28.01;90.22
20013;BME280;10167;42.852;23.042;2022-08-25T09:41:40;94675.97;;;28.52;84.25
20013;BME280;10167;42.852;23.042;2022-08-25T09:44:17;94671.66;;;28.86;84.39
20013;BME280;10167;42.852;23.042;2022-08-25T09:47:00;94676.50;;;28.77;83.34
20013;BME280;10167;42.852;23.042;2022-08-25T09:49:35;94666.09;;;28.63;85.27
20013;BME280;10167;42.852;23.042;2022-08-25T09:52:24;94672.50;;;28.90;83.42
20013;BME280;10167;42.852;23.042;2022-08-25T09:54:53;94672.94;;;29.31;83.25
20013;BME280;10167;42.852;23.042;2022-08-25T10:02:38;94683.06;;;29.72;79.62
20013;BME280;10167;42.852;23.042;2022-08-25T10:05:21;94668.88;;;29.86;79.86
20013;BME280;10167;42.852;23.042;2022-08-25T10:07:55;94672.94;;;30.18;80.00
20013;BME280;10167;42.852;23.042;2022-08-25T10:10:27;94679.56;;;30.66;78.72
20013;BME280;10167;42.852;23.042;2022-08-25T10:12:59;94665.47;;;31.24;81.68
20013;BME280;10167;42.852;23.042;2022-08-25T10:15:30;94669.22;;;31.46;75.68
20013;BME280;10167;42.852;23.042;2022-08-25T10:18:20;94681.28;;;31.42;74.77
20013;BME280;10167;42.852;23.042;2022-08-25T10:21:12;94672.72;;;30.53;77.44
20013;BME280;10167;42.852;23.042;2022-08-25T10:23:44;94688.03;;;30.09;80.36
20013;BME280;10167;42.852;23.042;2022-08-25T10:26:27;94675.38;;;29.55;82.53
20013;BME280;10167;42.852;23.042;2022-08-25T10:29:10;94680.91;;;29.20;83.85
20013;BME280;10167;42.852;23.042;2022-08-25T10:31:46;94671.66;;;28.86;85.31
20013;BME280;10167;42.852;23.042;2022-08-25T10:34:28;94669.44;;;28.57;86.70
20013;BME280;10167;42.852;23.042;2022-08-25T10:42:18;94669.78;;;28.20;89.14
20013;BME280;10167;42.852;23.042;2022-08-25T10:45:11;94669.88;;;28.08;90.79
20013;BME280;10167;42.852;23.042;2022-08-25T10:48:29;94659.94;;;27.84;90.32
20013;BME280;10167;42.852;23.042;2022-08-25T10:51:02;94689.63;;;27.45;89.96
20013;BME280;10167;42.852;23.042;2022-08-25T10:53:49;94679.38;;;27.55;89.93
20013;BME280;10167;42.852;23.042;2022-08-25T10:56:26;94676.03;;;27.45;90.20
20013;BME280;10167;42.852;23.042;2022-08-25T11:04:15;94666.34;;;28.07;89.00
20013;BME280;10167;42.852;23.042;2022-08-25T11:06:49;94653.97;;;28.61;87.23
20013;BME280;10167;42.852;23.042;2022-08-25T11:09:26;94661.22;;;28.72;84.66
20013;BME280;10167;42.852;23.042;2022-08-25T11:11:57;94651.81;;;28.70;84.62
20013;BME280;10167;42.852;23.042;2022-08-25T11:14:31;94651.66;;;28.98;85.24
20013;BME280;10167;42.852;23.042;2022-08-25T11:17:05;94642.53;;;29.09;85.13
20013;BME280;10167;42.852;23.042;2022-08-25T11:19:35;94648.81;;;29.13;84.25
20013;BME280;10167;42.852;23.042;2022-08-25T11:26:52;94637.56;;;29.15;82.88
20013;BME280;10167;42.852;23.042;2022-08-25T11:29:23;94644.03;;;29.45;83.26
20013;BME280;10167;42.852;23.042;2022-08-25T11:31:52;94630.69;;;29.21;82.14
20013;BME280;10167;42.852;23.042;2022-08-25T11:34:21;94622.50;;;29.02;82.22
20013;BME280;10167;42.852;23.042;2022-08-25T11:36:50;94618.59;;;28.99;82.98
20013;BME280;10167;42.852;23.042;2022-08-25T11:39:30;94618.03;;;29.13;83.35
20013;BME280;10167;42.852;23.042;2022-08-25T11:42:10;94617.53;;;29.26;82.83
20013;BME280;10167;42.852;23.042;2022-08-25T11:49:52;94615.34;;;29.78;81.03
20013;BME280;10167;42.852;23.042;2022-08-25T11:52:42;94616.25;;;29.40;81.63
20013;BME280;10167;42.852;23.042;2022-08-25T11:55:14;94606.28;;;29.74;80.38
20013;BME280;10167;42.852;23.042;2022-08-25T11:57:44;94601.69;;;30.01;79.65
20013;BME280;10167;42.852;23.042;2022-08-25T12:00:35;94610.41;;;30.36;77.96
20013;BME280;10167;42.852;23.042;2022-08-25T12:10:17;94612.56;;;31.47;75.41
20013;BME280;10167;42.852;23.042;2022-08-25T12:13:04;94605.06;;;31.81;75.85
20013;BME280;10167;42.852;23.042;2022-08-25T12:15:56;94600.31;;;32.22;73.71
20013;BME280;10167;42.852;23.042;2022-08-25T12:18:41;94590.34;;;32.58;70.50
20013;BME280;10167;42.852;23.042;2022-08-25T12:21:28;94596.84;;;33.15;70.74
20013;BME280;10167;42.852;23.042;2022-08-25T12:24:12;94595.78;;;33.48;70.10
20013;BME280;10167;42.852;23.042;2022-08-25T12:31:59;94588.19;;;34.94;65.58
20013;BME280;10167;42.852;23.042;2022-08-25T12:40:52;94591.53;;;35.37;63.83
20013;BME280;10167;42.852;23.042;2022-08-25T12:43:25;94588.88;;;35.12;60.53
20013;BME280;10167;42.852;23.042;2022-08-25T12:46:37;94594.28;;;35.37;62.66
20013;BME280;10167;42.852;23.042;2022-08-25T12:54:15;94585.25;;;34.07;63.77
20013;BME280;10167;42.852;23.042;2022-08-25T12:56:52;94591.47;;;33.68;62.87
20013;BME280;10167;42.852;23.042;2022-08-25T12:59:32;94583.09;;;33.08;66.17
20013;BME280;10167;42.852;23.042;2022-08-25T13:02:27;94582.78;;;32.40;68.76
20013;BME280;10167;42.852;23.042;2022-08-25T13:05:34;94587.44;;;31.37;71.40
20013;BME280;10167;42.852;23.042;2022-08-25T13:08:22;94582.38;;;30.69;73.51
20013;BME280;10167;42.852;23.042;2022-08-25T13:14:36;94586.94;;;29.59;75.32
20013;BME280;10167;42.852;23.042;2022-08-25T13:17:05;94587.97;;;29.29;76.48
20013;BME280;10167;42.852;23.042;2022-08-25T13:19:36;94591.81;;;29.05;77.64
20013;BME280;10167;42.852;23.042;2022-08-25T13:22:11;94577.53;;;28.73;78.98
20013;BME280;10167;42.852;23.042;2022-08-25T13:24:44;94584.84;;;28.49;80.10
20013;BME280;10167;42.852;23.042;2022-08-25T13:27:20;94577.38;;;28.46;79.84
20013;BME280;10167;42.852;23.042;2022-08-25T13:29:51;94582.81;;;28.46;79.71
20013;BME280;10167;42.852;23.042;2022-08-25T13:37:23;94584.25;;;28.05;83.18
20013;BME280;10167;42.852;23.042;2022-08-25T13:40:09;94581.47;;;27.86;83.19
20013;BME280;10167;42.852;23.042;2022-08-25T13:42:38;94588.13;;;27.89;82.97
20013;BME280;10167;42.852;23.042;2022-08-25T13:45:13;94588.69;;;28.29;82.75
20013;BME280;10167;42.852;23.042;2022-08-25T13:47:42;94578.69;;;28.72;80.47
20013;BME280;10167;42.852;23.042;2022-08-25T13:50:23;94588.69;;;29.45;78.45
20013;BME280;10167;42.852;23.042;2022-08-25T13:56:49;94583.75;;;29.54;74.54
20013;BME280;10167;42.852;23.042;2022-08-25T13:59:21;94586.94;;;29.37;75.26
20013;BME280;10167;42.852;23.042;2022-08-25T14:01:52;94585.75;;;29.57;75.36
20013;BME280;10167;42.852;23.042;2022-08-25T14:04:29;94576.91;;;29.64;76.14
20013;BME280;10167;42.852;23.042;2022-08-25T14:07:23;94579.28;;;29.42;75.44
20013;BME280;10167;42.852;23.042;2022-08-25T14:09:53;94579.09;;;29.35;76.53
20013;BME280;10167;42.852;23.042;2022-08-25T14:12:27;94575.72;;;29.19;75.84
20013;BME280;10167;42.852;23.042;2022-08-25T14:19:32;94565.41;;;28.89;77.48
20013;BME280;10167;42.852;23.042;2022-08-25T14:22:02;94581.41;;;28.72;77.28
20013;BME280;10167;42.852;23.042;2022-08-25T14:24:33;94582.34;;;28.60;78.60
20013;BME280;10167;42.852;23.042;2022-08-25T14:27:07;94582.91;;;28.50;77.88
20013;BME280;10167;42.852;23.042;2022-08-25T14:29:38;94580.44;;;28.45;78.88
20013;BME280;10167;42.852;23.042;2022-08-25T14:32:08;94576.31;;;28.32;79.49
20013;BME280;10167;42.852;23.042;2022-08-25T14:34:38;94571.72;;;28.36;80.25
20013;BME280;10167;42.852;23.042;2022-08-25T14:42:07;94575.72;;;28.07;79.08
20013;BME280;10167;42.852;23.042;2022-08-25T14:44:35;94580.28;;;28.03;79.00
20013;BME280;10167;42.852;23.042;2022-08-25T14:47:05;94580.75;;;27.89;79.19
20013;BME280;10167;42.852;23.042;2022-08-25T14:49:36;94580.50;;;27.78;79.96
20013;BME280;10167;42.852;23.042;2022-08-25T14:52:07;94579.31;;;27.60;80.28
20013;BME280;10167;42.852;23.042;2022-08-25T14:54:35;94576.66;;;27.48;80.27
20013;BME280;10167;42.852;23.042;2022-08-25T14:57:04;94573.03;;;27.44;80.59
20013;BME280;10167;42.852;23.042;2022-08-25T15:02:25;94575.50;;;27.18;81.59
20013;BME280;10167;42.852;23.042;2022-08-25T15:04:59;94571.88;;;27.14;80.58
20013;BME280;10167;42.852;23.042;2022-08-25T15:07:32;94578.47;;;27.13;80.94
20013;BME280;10167;42.852;23.042;2022-08-25T15:10:17;94582.66;;;27.10;81.93
20013;BME280;10167;42.852;23.042;2022-08-25T15:12:48;94581.69;;;27.02;81.35
20013;BME280;10167;42.852;23.042;2022-08-25T15:15:20;94576.25;;;27.02;82.91
20013;BME280;10167;42.852;23.042;2022-08-25T15:20:52;94579.28;;;26.85;82.37
20013;BME280;10167;42.852;23.042;2022-08-25T15:23:20;94584.16;;;26.80;82.62
20013;BME280;10167;42.852;23.042;2022-08-25T15:25:49;94581.44;;;26.80;83.66
20013;BME280;10167;42.852;23.042;2022-08-25T15:28:19;94579.28;;;26.85;83.22
20013;BME280;10167;42.852;23.042;2022-08-25T15:30:49;94572.59;;;26.83;83.89
20013;BME280;10167;42.852;23.042;2022-08-25T15:33:16;94575.41;;;26.86;84.76
20013;BME280;10167;42.852;23.042;2022-08-25T15:35:45;94574.25;;;26.87;84.94
20013;BME280;10167;42.852;23.042;2022-08-25T15:43:17;94570.75;;;26.87;85.09
20013;BME280;10167;42.852;23.042;2022-08-25T15:45:47;94567.34;;;26.90;85.35
20013;BME280;10167;42.852;23.042;2022-08-25T15:48:17;94566.38;;;26.82;85.28
20013;BME280;10167;42.852;23.042;2022-08-25T15:50:44;94571.91;;;26.86;84.68
20013;BME280;10167;42.852;23.042;2022-08-25T15:53:13;94568.81;;;26.87;84.72
20013;BME280;10167;42.852;23.042;2022-08-25T15:55:41;94575.41;;;26.86;83.92
20013;BME280;10167;42.852;23.042;2022-08-25T15:58:10;94569.88;;;26.83;84.24
20013;BME280;10167;42.852;23.042;2022-08-25T16:04:44;94571.31;;;26.64;85.43
20013;BME280;10167;42.852;23.042;2022-08-25T16:07:12;94571.44;;;26.56;86.10
20013;BME280;10167;42.852;23.042;2022-08-25T16:09:40;94572.13;;;26.53;85.89
20013;BME280;10167;42.852;23.042;2022-08-25T16:12:10;94571.03;;;26.42;86.31
20013;BME280;10167;42.852;23.042;2022-08-25T16:14:39;94569.38;;;26.37;87.35
20013;BME280;10167;42.852;23.042;2022-08-25T16:17:06;94566.31;;;26.38;86.29
20013;BME280;10167;42.852;23.042;2022-08-25T16:19:34;94565.88;;;26.36;88.25
20013;BME280;10167;42.852;23.042;2022-08-25T16:27:05;94569.25;;;26.21;88.65
20013;BME280;10167;42.852;23.042;2022-08-25T16:29:39;94563.06;;;26.09;89.03
20013;BME280;10167;42.852;23.042;2022-08-25T16:32:07;94564.19;;;26.08;88.85
20013;BME280;10167;42.852;23.042;2022-08-25T16:34:36;94572.47;;;25.99;88.90
20013;BME280;10167;42.852;23.042;2022-08-25T16:37:05;94566.59;;;25.97;89.72
20013;BME280;10167;42.852;23.042;2022-08-25T16:39:34;94564.13;;;25.92;89.21
20013;BME280;10167;42.852;23.042;2022-08-25T16:42:02;94557.72;;;25.84;90.13
20013;BME280;10167;42.852;23.042;2022-08-25T16:49:30;94575.31;;;25.78;89.94
20013;BME280;10167;42.852;23.042;2022-08-25T16:51:58;94582.34;;;25.67;89.72
20013;BME280;10167;42.852;23.042;2022-08-25T16:54:29;94580.06;;;25.57;90.52